Terminal Aerodrome Forecast
Issued by NWS Cheyenne, WY

Home | Current Version | Previous Version | Text Only | Print | Product List | Glossary On
Versions: 1 2 3 4 5 6 7 8 9 10 11 12 13 14 15 16 17 18 19 20 21 22 23 24 25 26 27 28 29 30 31 32 33 34 35 36 37 38 39 40 41 42
000
FTUS45 KCYS 122300
TAFCYS
TAF
KCYS 122340Z 1300/1324 02010KT P6SM BKN050
     FM130400 04005KT P6SM -SHRA VCTS SCT005 BKN040CB
     FM130600 03005KT P6SM BKN050
     FM131100 VRB03KT 1SM BR BKN004
     FM131500 VRB05KT P6SM SCT040
     FM131900 06010KT P6SM VCTS BKN050CB=

USA.gov is the U.S. government's official web portal to all federal, state and local government web resources and services.